Time;durP1;ratioP1;P1;durP2;ratioP2;P2;SDS_P1;SDS_P2;PMS_P1;PMS_P2;Temp;Humidity;BMP_temperature;BMP_pressure;BME280_temperature;BME280_humidity;BME280_pressure;Samples;Min_cycle;Max_cycle;Signal;HPM_P1;HPM_P2
2022/12/22 03:26:29;;;;;;;1.90;1.10;;;13.30;99.90;;;;;;5021598;28;20415;-68
2022/12/22 03:28:54;;;;;;;3.40;1.15;;;13.20;99.90;;;;;;5013257;28;20471;-68
2022/12/22 03:31:20;;;;;;;3.10;1.00;;;13.20;99.90;;;;;;5013139;28;20396;-68
2022/12/22 03:33:46;;;;;;;3.07;1.03;;;13.30;99.90;;;;;;5011089;28;20377;-69
2022/12/22 03:36:11;;;;;;;3.40;1.30;;;13.40;99.90;;;;;;5013148;28;20450;-69
2022/12/22 03:38:37;;;;;;;5.10;1.40;;;13.40;99.90;;;;;;5013207;28;20495;-68
2022/12/22 03:41:02;;;;;;;3.70;1.30;;;13.40;99.90;;;;;;5012886;28;20393;-68
2022/12/22 03:46:29;;;;;;;8.25;1.40;;;13.30;99.90;;;;;;5012846;28;20763;-68
2022/12/22 03:49:09;;;;;;;5.10;1.27;;;13.30;99.90;;;;;;5013002;28;20759;-69
2022/12/22 03:51:38;;;;;;;4.80;1.50;;;13.30;99.90;;;;;;5012898;28;20377;-68
2022/12/22 03:54:04;;;;;;;3.33;1.02;;;13.30;99.90;;;;;;5012127;28;20990;-68
2022/12/22 03:56:30;;;;;;;3.80;1.20;;;13.30;99.90;;;;;;5012714;28;20444;-68
2022/12/22 03:58:56;;;;;;;3.90;1.10;;;13.20;99.90;;;;;;5012697;28;20492;-69
2022/12/22 04:01:21;;;;;;;4.80;1.27;;;13.20;99.90;;;;;;5011102;28;20397;-68
2022/12/22 04:03:48;;;;;;;3.30;1.30;;;13.20;99.90;;;;;;5011947;28;20457;-68
2022/12/22 04:06:14;;;;;;;2.72;1.10;;;13.20;99.90;;;;;;5012578;28;20751;-69
2022/12/22 04:08:40;;;;;;;4.32;1.40;;;13.20;99.90;;;;;;5017382;28;20474;-68
2022/12/22 04:13:50;;;;;;;3.22;1.55;;;13.20;99.90;;;;;;5016971;28;20441;-69
2022/12/22 04:16:15;;;;;;;2.47;1.17;;;13.20;99.90;;;;;;5032302;28;20440;-68
2022/12/22 04:18:41;;;;;;;3.70;1.10;;;13.30;99.90;;;;;;5032263;28;20465;-69
2022/12/22 04:21:06;;;;;;;4.63;1.20;;;13.30;99.90;;;;;;5032054;28;20397;-69
2022/12/22 04:23:32;;;;;;;3.70;1.70;;;13.20;99.90;;;;;;5031262;28;20877;-69
2022/12/22 04:25:59;;;;;;;3.63;1.20;;;13.30;99.90;;;;;;5025008;28;20377;-69
2022/12/22 04:28:24;;;;;;;3.13;1.10;;;13.30;99.90;;;;;;5012427;28;20890;-69
2022/12/22 04:30:50;;;;;;;4.70;1.50;;;13.30;99.90;;;;;;5028106;28;20383;-68
2022/12/22 04:33:16;;;;;;;3.33;1.05;;;13.30;99.90;;;;;;5031202;28;20387;-68
2022/12/22 04:35:41;;;;;;;2.97;1.20;;;13.30;99.90;;;;;;5027219;28;20788;-68
2022/12/22 04:38:07;;;;;;;5.65;1.50;;;13.30;99.90;;;;;;5031829;28;20379;-68
2022/12/22 04:40:32;;;;;;;3.47;1.53;;;13.20;99.90;;;;;;5031785;28;20410;-68
2022/12/22 04:42:58;;;;;;;6.07;1.60;;;13.30;99.90;;;;;;5031123;28;20407;-68
2022/12/22 04:45:23;;;;;;;3.70;1.27;;;13.30;99.90;;;;;;5031453;28;20916;-69
2022/12/22 04:47:49;;;;;;;4.68;1.30;;;13.30;99.90;;;;;;5031860;28;20517;-68
2022/12/22 04:50:14;;;;;;;5.10;1.40;;;13.30;99.90;;;;;;5031818;28;20433;-68
2022/12/22 04:52:40;;;;;;;3.40;1.60;;;13.30;99.90;;;;;;5031043;28;20386;-68
2022/12/22 04:55:06;;;;;;;4.53;1.50;;;13.20;99.90;;;;;;5031611;28;20437;-68
2022/12/22 04:57:31;;;;;;;3.85;1.60;;;13.20;99.90;;;;;;5031605;28;20422;-68
2022/12/22 04:59:57;;;;;;;4.25;1.40;;;13.20;99.90;;;;;;5031540;28;20474;-68
2022/12/22 05:02:22;;;;;;;4.85;1.60;;;13.30;99.90;;;;;;5031278;28;20743;-68
2022/12/22 05:04:48;;;;;;;4.23;1.70;;;13.30;99.90;;;;;;5030886;28;20399;-68
2022/12/22 05:07:13;;;;;;;3.13;1.40;;;13.20;99.90;;;;;;5031465;28;20383;-68
2022/12/22 05:09:39;;;;;;;3.80;1.50;;;13.20;99.90;;;;;;5031363;28;20386;-68
2022/12/22 05:12:53;;;;;;;7.10;1.40;;;13.20;99.90;;;;;;5031316;28;20411;-68
2022/12/22 05:14:51;;;;;;;5.18;1.60;;;13.10;99.90;;;;;;5030704;28;20881;-69
2022/12/22 05:17:16;;;;;;;6.43;1.30;;;13.10;99.90;;;;;;5031375;28;20445;-69
2022/12/22 05:19:42;;;;;;;4.05;1.40;;;13.00;99.90;;;;;;5031376;28;20386;-68
2022/12/22 05:22:07;;;;;;;3.63;1.40;;;13.10;99.90;;;;;;5031031;28;20417;-69
2022/12/22 05:24:33;;;;;;;4.83;1.33;;;13.10;99.90;;;;;;5064242;22;20908;-70
2022/12/22 05:26:58;;;;;;;8.05;2.03;;;13.10;99.90;;;;;;5050998;28;20713;-70
2022/12/22 05:29:24;;;;;;;5.00;1.50;;;13.10;99.90;;;;;;5051094;28;20381;-70
2022/12/22 05:31:49;;;;;;;3.73;1.50;;;13.10;99.90;;;;;;5050841;28;20384;-69
2022/12/22 05:34:15;;;;;;;5.23;1.30;;;13.00;99.90;;;;;;5040975;28;20398;-70
2022/12/22 05:36:40;;;;;;;4.88;1.35;;;13.00;99.90;;;;;;5028486;28;20436;-69
2022/12/22 05:39:06;;;;;;;3.70;2.00;;;13.00;99.90;;;;;;5019308;28;20725;-69
2022/12/22 05:41:31;;;;;;;4.83;1.50;;;12.90;99.90;;;;;;5031115;28;20402;-70
2022/12/22 05:43:57;;;;;;;6.70;1.45;;;12.90;99.90;;;;;;5030315;28;20387;-70
2022/12/22 05:46:22;;;;;;;4.20;1.40;;;12.90;99.90;;;;;;5030977;28;20375;-70
2022/12/22 05:48:48;;;;;;;3.40;1.00;;;12.90;99.90;;;;;;5030976;28;20759;-69
2022/12/22 05:51:13;;;;;;;3.37;1.20;;;12.90;99.90;;;;;;5029414;28;20386;-70
2022/12/22 05:53:40;;;;;;;6.10;1.50;;;12.90;99.90;;;;;;5023198;28;20390;-69
2022/12/22 05:56:06;;;;;;;3.03;1.20;;;12.90;99.90;;;;;;5012813;28;20426;-70
2022/12/22 05:58:33;;;;;;;7.00;2.15;;;12.90;99.90;;;;;;5031500;28;20387;-70
2022/12/22 06:00:59;;;;;;;3.78;1.60;;;12.90;99.90;;;;;;5030671;28;20393;-69
2022/12/22 06:03:26;;;;;;;5.63;1.63;;;12.90;99.90;;;;;;5029707;28;20410;-69
2022/12/22 06:05:53;;;;;;;3.60;1.40;;;12.90;99.90;;;;;;5030709;28;20395;-71
2022/12/22 06:08:18;;;;;;;6.77;1.53;;;12.90;99.90;;;;;;5028986;28;20984;-70
2022/12/22 06:10:44;;;;;;;6.38;1.75;;;12.90;99.90;;;;;;5011264;28;20481;-69
2022/12/22 06:13:10;;;;;;;4.10;1.57;;;12.90;99.90;;;;;;5022490;28;20397;-70
2022/12/22 06:15:35;;;;;;;4.20;1.57;;;13.00;99.90;;;;;;5019632;28;20457;-70
2022/12/22 06:18:01;;;;;;;4.77;1.70;;;13.00;99.90;;;;;;5023150;28;21146;-69
2022/12/22 06:20:26;;;;;;;5.10;1.30;;;13.00;99.90;;;;;;5031326;28;20394;-70
2022/12/22 06:22:52;;;;;;;6.23;1.83;;;12.90;99.90;;;;;;5031153;28;20789;-69
2022/12/22 06:25:17;;;;;;;5.07;2.00;;;12.90;99.90;;;;;;5029862;28;20391;-70
2022/12/22 06:27:43;;;;;;;4.85;1.52;;;12.90;99.90;;;;;;5021288;28;20383;-69
2022/12/22 06:30:08;;;;;;;7.22;2.15;;;12.90;99.90;;;;;;5030055;28;20906;-70
2022/12/22 06:32:38;;;;;;;4.45;1.95;;;12.90;99.90;;;;;;5033032;28;20401;-69
2022/12/22 06:35:04;;;;;;;4.60;1.90;;;12.90;99.90;;;;;;5030224;28;20484;-69
2022/12/22 06:37:29;;;;;;;6.83;2.20;;;12.90;99.90;;;;;;5030940;28;20886;-69
2022/12/22 06:39:55;;;;;;;7.07;2.10;;;12.90;99.90;;;;;;5031603;28;20398;-70
2022/12/22 06:45:05;;;;;;;5.90;2.30;;;12.90;99.90;;;;;;5020192;28;20744;-70
2022/12/22 06:47:31;;;;;;;6.30;1.90;;;12.90;99.90;;;;;;5017216;28;20905;-70
2022/12/22 06:49:56;;;;;;;5.70;2.00;;;12.90;99.90;;;;;;5019656;28;20387;-69
2022/12/22 06:52:22;;;;;;;6.70;1.70;;;12.90;99.90;;;;;;5020890;28;20401;-69
2022/12/22 06:54:47;;;;;;;5.37;1.60;;;12.90;99.90;;;;;;5018190;28;20464;-69
2022/12/22 06:57:13;;;;;;;8.02;1.60;;;12.90;99.90;;;;;;5020089;28;20408;-70
2022/12/22 06:59:38;;;;;;;8.65;1.70;;;12.90;99.90;;;;;;5018216;28;20422;-69
2022/12/22 07:02:04;;;;;;;8.07;2.10;;;12.90;99.90;;;;;;5026348;28;20843;-69
2022/12/22 07:04:30;;;;;;;5.57;2.37;;;12.90;99.90;;;;;;5032589;28;20453;-70
2022/12/22 07:06:56;;;;;;;4.63;1.60;;;12.90;99.90;;;;;;5023771;28;20396;-70
2022/12/22 07:09:21;;;;;;;4.23;1.40;;;12.90;99.90;;;;;;5022633;28;21083;-70
2022/12/22 07:11:47;;;;;;;6.27;1.80;;;12.90;99.90;;;;;;5024506;28;20837;-69
2022/12/22 07:14:12;;;;;;;5.10;1.75;;;12.90;99.90;;;;;;5018815;28;20397;-69
2022/12/22 07:16:38;;;;;;;5.72;1.90;;;12.90;99.90;;;;;;5023166;28;20407;-69
2022/12/22 07:19:03;;;;;;;4.93;1.70;;;12.80;99.90;;;;;;5031072;28;20386;-70
2022/12/22 07:21:29;;;;;;;4.90;1.23;;;12.70;99.90;;;;;;5030674;28;20407;-70
2022/12/22 07:23:55;;;;;;;3.90;1.40;;;12.60;99.90;;;;;;5030439;28;20445;-69
2022/12/22 07:26:20;;;;;;;6.87;1.77;;;12.50;99.90;;;;;;5025524;28;20903;-69
2022/12/22 07:28:46;;;;;;;4.95;1.52;;;12.60;99.90;;;;;;5024910;28;20486;-70
2022/12/22 07:31:14;;;;;;;5.17;1.53;;;12.60;99.90;;;;;;5027314;28;20755;-70
2022/12/22 07:33:39;;;;;;;6.85;3.10;;;12.60;99.90;;;;;;5030831;28;20434;-70
2022/12/22 07:36:13;;;;;;;6.43;2.60;;;12.60;99.90;;;;;;5038597;28;20415;-71
2022/12/22 07:38:42;;;;;;;6.57;1.88;;;12.50;99.90;;;;;;5016889;28;20395;-69
2022/12/22 07:43:55;;;;;;;6.68;1.80;;;12.50;99.90;;;;;;5038574;28;20428;-71
2022/12/22 07:46:23;;;;;;;5.60;2.15;;;12.40;99.90;;;;;;5034268;28;20384;-69
2022/12/22 07:51:34;;;;;;;4.90;2.08;;;12.40;99.90;;;;;;5053016;28;20377;-70
2022/12/22 07:54:00;;;;;;;4.97;2.30;;;12.30;99.90;;;;;;5046577;28;20392;-70
2022/12/22 07:56:25;;;;;;;5.70;1.70;;;12.40;99.90;;;;;;5044357;28;20931;-69
2022/12/22 07:58:51;;;;;;;4.60;1.40;;;12.40;99.90;;;;;;5052823;28;20806;-70
2022/12/22 08:01:16;;;;;;;3.80;1.90;;;12.40;99.90;;;;;;5052692;28;20380;-70
2022/12/22 08:03:42;;;;;;;6.88;2.13;;;12.30;99.90;;;;;;5051636;28;20393;-70
2022/12/22 08:06:08;;;;;;;5.70;1.83;;;12.30;99.90;;;;;;5048013;28;20389;-69
2022/12/22 08:08:33;;;;;;;6.90;1.43;;;12.20;99.90;;;;;;5040809;28;20402;-70
2022/12/22 08:11:02;;;;;;;4.05;1.80;;;12.10;99.90;;;;;;5032620;28;20383;-71
2022/12/22 08:13:28;;;;;;;4.45;1.40;;;12.10;99.90;;;;;;5031559;28;20397;-70
2022/12/22 08:15:53;;;;;;;5.60;1.60;;;12.10;99.90;;;;;;5032599;28;20394;-70
2022/12/22 08:18:19;;;;;;;6.40;2.20;;;12.10;99.90;;;;;;5032531;28;20430;-71
2022/12/22 08:20:49;;;;;;;5.72;2.10;;;12.00;99.90;;;;;;5031975;28;20383;-69
2022/12/22 08:23:15;;;;;;;8.65;2.20;;;12.00;99.90;;;;;;5031316;28;20399;-70
2022/12/22 08:25:40;;;;;;;5.47;2.00;;;11.90;99.90;;;;;;5035700;28;20397;-70
2022/12/22 08:28:06;;;;;;;3.38;1.50;;;11.90;99.90;;;;;;5045590;28;20381;-68
2022/12/22 08:30:33;;;;;;;3.83;1.50;;;11.90;99.90;;;;;;5052197;28;20947;-69
2022/12/22 08:32:58;;;;;;;6.85;2.00;;;11.90;99.90;;;;;;5051559;28;20393;-69
2022/12/22 08:35:24;;;;;;;6.32;2.60;;;11.90;99.90;;;;;;5031855;28;20582;-69
2022/12/22 08:37:50;;;;;;;6.63;2.50;;;12.00;99.90;;;;;;5026036;28;20392;-69
2022/12/22 08:40:28;;;;;;;6.00;2.10;;;12.00;99.90;;;;;;5030444;28;20751;-71
2022/12/22 08:42:58;;;;;;;8.27;2.58;;;12.10;99.90;;;;;;5031293;28;20433;-69
2022/12/22 08:45:24;;;;;;;5.90;2.10;;;12.20;99.90;;;;;;5032175;28;20767;-69
2022/12/22 08:47:49;;;;;;;9.57;2.10;;;12.20;99.90;;;;;;5032068;28;20388;-69
2022/12/22 08:50:15;;;;;;;7.10;2.70;;;12.20;99.90;;;;;;5014304;28;20923;-69
2022/12/22 08:52:41;;;;;;;7.90;2.40;;;12.20;99.90;;;;;;5031031;28;20418;-70
2022/12/22 08:55:07;;;;;;;6.35;2.20;;;12.20;99.90;;;;;;5031949;28;20445;-69
2022/12/22 08:57:32;;;;;;;8.10;2.55;;;12.20;99.90;;;;;;5032153;28;20873;-68
2022/12/22 08:59:58;;;;;;;8.50;1.90;;;12.30;99.90;;;;;;5014195;28;20411;-69
2022/12/22 09:02:23;;;;;;;5.20;2.00;;;12.30;99.90;;;;;;5031511;28;20889;-70
2022/12/22 09:04:49;;;;;;;5.05;2.00;;;12.30;99.90;;;;;;5013294;28;20743;-69
2022/12/22 09:07:15;;;;;;;4.80;1.90;;;12.20;99.90;;;;;;5031527;28;20386;-70
2022/12/22 09:09:40;;;;;;;6.07;2.70;;;12.20;99.90;;;;;;5018595;28;20381;-71
2022/12/22 09:12:06;;;;;;;6.93;1.90;;;12.10;99.90;;;;;;5011606;28;20404;-70
2022/12/22 09:14:32;;;;;;;5.47;2.50;;;12.10;99.90;;;;;;5010977;28;20423;-70
2022/12/22 09:16:58;;;;;;;5.50;2.30;;;12.00;99.90;;;;;;5011737;28;20389;-70
2022/12/22 09:19:24;;;;;;;7.60;1.83;;;12.00;99.90;;;;;;5011710;28;20458;-69
2022/12/22 09:21:49;;;;;;;8.40;2.60;;;12.00;99.90;;;;;;5011718;28;20503;-70
2022/12/22 09:24:15;;;;;;;8.73;2.47;;;11.90;99.90;;;;;;4993451;28;20404;-72
2022/12/22 09:26:41;;;;;;;8.33;1.87;;;11.90;99.90;;;;;;5024490;28;20382;-70
2022/12/22 09:29:07;;;;;;;5.53;1.98;;;11.90;99.90;;;;;;5031315;28;20422;-71
2022/12/22 09:31:33;;;;;;;6.28;2.20;;;11.80;99.90;;;;;;5031274;28;20476;-70
2022/12/22 09:33:59;;;;;;;11.20;2.42;;;11.80;99.90;;;;;;5030361;28;20383;-68
2022/12/22 09:36:27;;;;;;;6.70;2.20;;;11.90;99.90;;;;;;5030898;28;20770;-69
2022/12/22 09:38:52;;;;;;;7.70;1.92;;;12.00;99.90;;;;;;5031049;28;20390;-70
2022/12/22 09:41:30;;;;;;;8.40;2.20;;;12.00;99.90;;;;;;5023088;28;20391;-69
2022/12/22 09:44:00;;;;;;;10.82;2.85;;;12.10;99.90;;;;;;5027249;28;20383;-70
2022/12/22 09:46:30;;;;;;;8.20;2.60;;;12.20;99.90;;;;;;5022592;28;20873;-69
2022/12/22 09:48:56;;;;;;;10.87;2.27;;;12.20;99.90;;;;;;5030904;28;20518;-70
2022/12/22 09:51:22;;;;;;;8.17;2.53;;;12.20;99.90;;;;;;5030880;28;20466;-68
2022/12/22 09:53:53;;;;;;;9.40;2.80;;;12.30;99.90;;;;;;5030082;28;20379;-69
2022/12/22 09:56:19;;;;;;;12.15;2.40;;;12.20;99.90;;;;;;5012982;28;20889;-70
2022/12/22 09:58:46;;;;;;;10.50;2.80;;;12.30;99.90;;;;;;5030910;28;20477;-70
2022/12/22 10:01:39;;;;;;;8.98;2.38;;;12.30;99.90;;;;;;5027370;28;20433;-69
2022/12/22 10:04:28;;;;;;;9.20;2.65;;;12.30;99.90;;;;;;5029379;28;20418;-70
2022/12/22 10:07:15;;;;;;;7.68;2.60;;;12.30;99.90;;;;;;5025875;28;20390;-69
2022/12/22 10:09:40;;;;;;;10.82;2.72;;;12.40;99.90;;;;;;5017194;28;20384;-68
2022/12/22 10:12:12;;;;;;;6.73;2.30;;;12.40;99.90;;;;;;5010782;28;20416;-70
2022/12/22 10:14:41;;;;;;;5.75;2.70;;;12.40;99.90;;;;;;5010026;28;20894;-71
2022/12/22 10:17:30;;;;;;;8.80;3.08;;;12.40;99.90;;;;;;5010832;28;20400;-70
2022/12/22 10:20:24;;;;;;;7.77;2.40;;;12.50;99.90;;;;;;5010714;28;20419;-70
2022/12/22 10:23:13;;;;;;;8.25;2.55;;;12.50;99.90;;;;;;4992803;28;20409;-69
2022/12/22 10:26:07;;;;;;;7.45;2.53;;;12.50;99.90;;;;;;4998260;28;20898;-69
2022/12/22 10:28:46;;;;;;;10.00;2.58;;;12.60;99.90;;;;;;5027573;28;20490;-69
2022/12/22 10:31:19;;;;;;;7.22;2.40;;;12.60;99.90;;;;;;5030443;28;20789;-69
2022/12/22 10:33:47;;;;;;;9.80;2.60;;;12.60;99.90;;;;;;5029545;28;20469;-70
2022/12/22 10:36:24;;;;;;;7.47;2.72;;;12.60;99.90;;;;;;5025865;28;20441;-69
2022/12/22 10:39:04;;;;;;;9.57;2.30;;;12.60;99.90;;;;;;5011340;28;20385;-69
2022/12/22 10:41:39;;;;;;;8.15;2.70;;;12.60;99.90;;;;;;5018005;28;20394;-69
2022/12/22 10:44:18;;;;;;;7.93;2.75;;;12.60;99.90;;;;;;5033117;28;20393;-70
2022/12/22 10:46:56;;;;;;;5.90;2.22;;;12.60;99.90;;;;;;5034337;28;20489;-69
2022/12/22 10:49:23;;;;;;;10.20;2.70;;;12.70;99.90;;;;;;5029887;28;20395;-69
2022/12/22 10:51:56;;;;;;;9.32;3.10;;;12.70;99.90;;;;;;5032117;28;20399;-70
2022/12/22 10:54:37;;;;;;;7.43;2.42;;;12.70;99.90;;;;;;5024925;28;20389;-69
2022/12/22 10:57:02;;;;;;;8.65;2.30;;;12.60;99.90;;;;;;5014524;28;20392;-69
2022/12/22 10:59:28;;;;;;;10.88;3.30;;;12.70;99.90;;;;;;5014141;28;20962;-69
2022/12/22 11:02:13;;;;;;;6.53;2.40;;;12.70;99.90;;;;;;5014293;28;20416;-70
2022/12/22 11:04:39;;;;;;;5.25;1.98;;;12.70;99.90;;;;;;5013369;28;20906;-69
2022/12/22 11:07:08;;;;;;;7.28;2.08;;;12.60;99.90;;;;;;5014093;28;20389;-68
2022/12/22 11:09:33;;;;;;;5.97;1.80;;;12.60;99.90;;;;;;5018290;28;20414;-70
2022/12/22 11:12:11;;;;;;;5.25;2.00;;;12.60;99.90;;;;;;5013888;28;20447;-70
2022/12/22 11:14:57;;;;;;;6.25;1.70;;;12.50;99.90;;;;;;4995779;28;20447;-69
2022/12/22 11:17:40;;;;;;;4.85;1.98;;;12.50;99.90;;;;;;5014099;28;20867;-69
2022/12/22 11:20:38;;;;;;;6.25;2.05;;;12.40;99.90;;;;;;5013882;28;20424;-69
2022/12/22 11:26:22;;;;;;;10.38;3.17;;;12.30;99.90;;;;;;5061778;22;20515;-69
2022/12/22 11:29:12;;;;;;;7.45;2.90;;;12.40;99.90;;;;;;5044158;28;20470;-69
2022/12/22 11:32:05;;;;;;;7.75;2.13;;;12.30;99.90;;;;;;5033106;28;20375;-69
2022/12/22 11:34:45;;;;;;;12.10;3.13;;;12.40;99.90;;;;;;5032503;28;20375;-70
2022/12/22 11:37:39;;;;;;;12.52;3.90;;;12.30;99.90;;;;;;5033243;28;20437;-71
2022/12/22 11:40:16;;;;;;;10.80;3.60;;;12.30;99.90;;;;;;5033380;28;20837;-69
2022/12/22 11:43:16;;;;;;;12.10;4.23;;;12.30;99.90;;;;;;5014294;28;20411;-69
2022/12/22 11:46:05;;;;;;;11.65;3.10;;;12.30;99.90;;;;;;5032826;28;20371;-68
2022/12/22 11:48:45;;;;;;;9.90;2.92;;;12.40;99.90;;;;;;5032976;28;20375;-70
2022/12/22 11:51:22;;;;;;;11.00;3.63;;;12.30;99.90;;;;;;5032821;28;20371;-70
2022/12/22 11:54:10;;;;;;;11.88;3.45;;;12.40;99.90;;;;;;5031058;28;20375;-69
2022/12/22 11:56:40;;;;;;;11.60;3.70;;;12.40;99.90;;;;;;5032591;28;20387;-70
2022/12/22 11:59:34;;;;;;;8.30;3.20;;;12.50;99.90;;;;;;5032736;28;20502;-70
2022/12/22 12:02:44;;;;;;;9.98;3.13;;;12.50;99.90;;;;;;5032612;28;20754;-69
2022/12/22 12:05:28;;;;;;;10.95;2.90;;;12.60;99.90;;;;;;5027211;28;20434;-70
2022/12/22 12:08:16;;;;;;;11.27;3.65;;;12.60;99.90;;;;;;5026279;28;20457;-72
2022/12/22 12:10:49;;;;;;;13.23;3.60;;;12.60;99.90;;;;;;5047898;28;20520;-71
2022/12/22 12:13:34;;;;;;;12.00;3.45;;;12.70;99.90;;;;;;5051813;28;20725;-69
2022/12/22 12:16:17;;;;;;;8.95;3.13;;;12.70;99.90;;;;;;5052076;28;20416;-69
2022/12/22 12:19:24;;;;;;;13.38;3.60;;;12.70;99.90;;;;;;5052294;28;20388;-69
2022/12/22 12:22:03;;;;;;;10.05;2.92;;;12.80;99.90;;;;;;5026609;28;20414;-70
2022/12/22 12:24:39;;;;;;;8.43;2.70;;;12.90;99.90;;;;;;5031136;28;20410;-70
2022/12/22 12:27:39;;;;;;;10.00;2.88;;;12.90;99.90;;;;;;5048544;28;20740;-71
2022/12/22 12:30:16;;;;;;;10.27;2.95;;;12.90;99.90;;;;;;5052082;28;20420;-69
2022/12/22 12:33:16;;;;;;;10.45;3.60;;;12.80;99.90;;;;;;5051091;28;20389;-71
2022/12/22 12:35:48;;;;;;;12.70;3.20;;;12.80;99.90;;;;;;5046458;28;20407;-69
2022/12/22 12:38:36;;;;;;;8.15;2.92;;;12.90;99.90;;;;;;5041727;28;20392;-71
2022/12/22 12:41:14;;;;;;;11.80;3.20;;;12.80;99.90;;;;;;5041349;28;20385;-71
2022/12/22 12:43:41;;;;;;;9.05;2.72;;;12.70;99.90;;;;;;5050941;28;20895;-70
2022/12/22 12:46:44;;;;;;;12.23;3.08;;;12.70;99.90;;;;;;5033879;28;20481;-70
2022/12/22 12:49:35;;;;;;;10.05;3.08;;;12.60;99.90;;;;;;5052174;28;20380;-70
2022/12/22 12:52:03;;;;;;;8.02;2.72;;;12.50;99.90;;;;;;5051727;28;20377;-70
2022/12/22 12:54:29;;;;;;;10.35;2.90;;;12.50;99.90;;;;;;5030851;28;20387;-70
2022/12/22 12:56:58;;;;;;;7.00;2.60;;;12.40;99.90;;;;;;5031511;28;20387;-71
2022/12/22 12:59:44;;;;;;;9.63;2.85;;;12.30;99.90;;;;;;5031676;28;20390;-70
2022/12/22 13:02:33;;;;;;;10.63;3.20;;;12.00;99.90;;;;;;5013648;28;20494;-69
2022/12/22 13:05:10;;;;;;;9.77;3.30;;;11.80;99.90;;;;;;5031088;28;20774;-70
2022/12/22 13:08:14;;;;;;;10.50;2.85;;;11.70;99.90;;;;;;5031463;28;20474;-70
2022/12/22 13:10:43;;;;;;;15.82;3.70;;;11.50;99.90;;;;;;5031619;28;20437;-68
2022/12/22 13:13:23;;;;;;;9.80;3.45;;;11.40;99.90;;;;;;5030540;28;20379;-69
2022/12/22 13:16:01;;;;;;;15.40;3.58;;;11.40;99.90;;;;;;5031220;28;20473;-69
2022/12/22 13:18:32;;;;;;;12.68;4.22;;;11.50;99.90;;;;;;5014075;28;20493;-69
2022/12/22 13:21:25;;;;;;;12.10;3.40;;;11.60;99.90;;;;;;5031127;28;20379;-69
2022/12/22 13:23:56;;;;;;;13.32;2.90;;;11.70;99.90;;;;;;5021588;28;20402;-69
2022/12/22 13:26:26;;;;;;;13.63;4.10;;;11.80;99.90;;;;;;5041358;28;20377;-69
2022/12/22 13:29:17;;;;;;;11.30;3.30;;;11.80;99.90;;;;;;5048429;28;20381;-69
2022/12/22 13:31:46;;;;;;;12.05;2.85;;;11.90;99.90;;;;;;5031167;28;20386;-69
2022/12/22 13:34:56;;;;;;;9.07;3.00;;;11.90;99.90;;;;;;5030337;28;20410;-68
2022/12/22 13:37:24;;;;;;;11.00;3.60;;;11.90;99.90;;;;;;5013112;28;20793;-69
2022/12/22 13:40:10;;;;;;;8.90;3.40;;;11.90;99.90;;;;;;5013196;28;20403;-69
2022/12/22 13:42:56;;;;;;;11.60;3.15;;;12.00;99.90;;;;;;5030008;28;20813;-69
2022/12/22 13:45:43;;;;;;;8.98;2.83;;;12.00;99.90;;;;;;5030744;28;20379;-69
2022/12/22 13:48:17;;;;;;;12.93;3.20;;;11.90;99.90;;;;;;5030791;28;20389;-69
2022/12/22 13:50:48;;;;;;;12.20;3.53;;;11.80;99.90;;;;;;5030892;28;20521;-69
2022/12/22 13:53:39;;;;;;;10.63;3.08;;;11.70;99.90;;;;;;5030200;28;20406;-70
2022/12/22 13:56:35;;;;;;;13.70;3.60;;;11.70;99.90;;;;;;5030752;28;20476;-69
2022/12/22 13:59:01;;;;;;;10.05;3.50;;;11.70;99.90;;;;;;5013174;28;20398;-69
2022/12/22 14:01:27;;;;;;;13.30;4.07;;;11.70;99.90;;;;;;5032376;28;20538;-69
2022/12/22 14:03:57;;;;;;;10.13;3.30;;;11.70;99.90;;;;;;5018704;28;20418;-69
2022/12/22 14:06:32;;;;;;;8.77;2.97;;;11.70;99.90;;;;;;5041912;28;20475;-70
2022/12/22 14:09:22;;;;;;;14.15;3.13;;;11.80;99.90;;;;;;5042907;28;20440;-69
2022/12/22 14:12:02;;;;;;;12.48;4.32;;;11.70;99.90;;;;;;5044462;28;20429;-69
2022/12/22 14:14:33;;;;;;;13.75;3.40;;;11.60;99.90;;;;;;5049199;28;20374;-70
2022/12/22 14:16:59;;;;;;;10.18;2.75;;;11.60;99.90;;;;;;5049375;28;20394;-69
2022/12/22 14:19:29;;;;;;;11.20;3.50;;;11.50;99.90;;;;;;5041950;28;20393;-69
2022/12/22 14:22:03;;;;;;;10.32;3.55;;;11.50;99.90;;;;;;5050223;28;20460;-69
2022/12/22 14:24:33;;;;;;;14.38;3.88;;;11.30;99.90;;;;;;5049364;28;20389;-70
2022/12/22 14:26:59;;;;;;;15.40;4.40;;;11.20;99.90;;;;;;5034617;28;20399;-71
2022/12/22 14:29:27;;;;;;;14.90;3.40;;;11.00;99.90;;;;;;5030501;28;20827;-71
2022/12/22 14:31:58;;;;;;;12.40;3.70;;;11.00;99.90;;;;;;5030318;28;20523;-70
2022/12/22 14:34:30;;;;;;;14.40;4.72;;;11.00;99.90;;;;;;5011700;28;20395;-71
2022/12/22 14:36:57;;;;;;;15.90;3.70;;;11.00;99.90;;;;;;5030273;28;20743;-71
2022/12/22 14:39:25;;;;;;;10.88;3.65;;;11.00;99.90;;;;;;5030232;28;20440;-71
2022/12/22 14:41:57;;;;;;;11.88;3.88;;;11.00;99.90;;;;;;5029832;28;20773;-71
2022/12/22 14:44:42;;;;;;;11.05;3.67;;;10.90;99.90;;;;;;5029418;28;20873;-70
2022/12/22 14:47:10;;;;;;;12.50;3.40;;;11.00;99.90;;;;;;5030143;28;20383;-71
2022/12/22 14:50:00;;;;;;;12.30;3.58;;;11.10;99.90;;;;;;5012432;28;20385;-71
2022/12/22 14:52:34;;;;;;;12.20;3.03;;;11.20;99.90;;;;;;5029629;28;20387;-70
2022/12/22 14:55:03;;;;;;;11.68;3.60;;;11.30;99.90;;;;;;5030041;28;20394;-71
2022/12/22 14:57:38;;;;;;;11.35;3.35;;;11.50;99.90;;;;;;5030266;28;20387;-70
2022/12/22 15:00:20;;;;;;;10.57;3.40;;;11.50;99.90;;;;;;5030065;28;20426;-70
2022/12/22 15:02:50;;;;;;;10.68;3.28;;;11.60;99.90;;;;;;5029068;28;20436;-70
2022/12/22 15:05:28;;;;;;;11.30;3.50;;;11.60;99.90;;;;;;5029799;28;20410;-70
2022/12/22 15:07:57;;;;;;;10.25;3.10;;;11.50;99.90;;;;;;5029938;28;20371;-70
2022/12/22 15:10:25;;;;;;;14.88;4.20;;;11.60;99.90;;;;;;5048832;28;20389;-68
2022/12/22 15:12:58;;;;;;;8.63;3.40;;;11.60;99.90;;;;;;5048973;28;20381;-68
2022/12/22 15:15:24;;;;;;;12.88;3.83;;;11.80;99.90;;;;;;5049790;28;20382;-70
2022/12/22 15:17:51;;;;;;;9.13;2.75;;;11.80;99.90;;;;;;5049778;28;20424;-71
2022/12/22 15:20:23;;;;;;;10.18;2.83;;;11.80;99.90;;;;;;5049947;28;20468;-71
2022/12/22 15:22:49;;;;;;;7.15;2.53;;;11.90;99.90;;;;;;5049022;28;20406;-71
2022/12/22 15:25:17;;;;;;;10.38;2.67;;;11.90;99.90;;;;;;5048146;28;20401;-68
2022/12/22 15:27:43;;;;;;;10.13;2.85;;;11.80;99.90;;;;;;5029531;28;20387;-71
2022/12/22 15:30:10;;;;;;;8.27;3.08;;;11.90;99.90;;;;;;5033052;28;20383;-70
2022/12/22 15:32:35;;;;;;;10.05;2.97;;;11.80;99.90;;;;;;5032437;28;20376;-70
2022/12/22 15:35:02;;;;;;;7.35;2.72;;;11.90;99.90;;;;;;5033167;28;20440;-68
2022/12/22 15:37:28;;;;;;;5.10;2.53;;;12.00;99.90;;;;;;5033183;28;20447;-69
2022/12/22 15:39:54;;;;;;;7.50;2.53;;;12.10;99.90;;;;;;5033154;28;20760;-69
2022/12/22 15:42:19;;;;;;;11.10;3.42;;;12.00;99.90;;;;;;5032983;28;20407;-69
2022/12/22 15:44:45;;;;;;;13.95;3.25;;;12.10;99.90;;;;;;5014407;28;20437;-70
2022/12/22 15:47:11;;;;;;;7.68;2.67;;;12.10;99.90;;;;;;5033028;28;20462;-69
2022/12/22 15:49:37;;;;;;;11.32;3.45;;;12.10;99.90;;;;;;5032990;28;20889;-69
2022/12/22 15:52:04;;;;;;;11.07;2.60;;;12.20;99.90;;;;;;5032908;28;20418;-69
2022/12/22 15:54:33;;;;;;;12.77;2.97;;;12.20;99.90;;;;;;5031996;28;20402;-69
2022/12/22 15:57:00;;;;;;;5.93;2.63;;;12.20;99.90;;;;;;5032564;28;20416;-69
2022/12/22 15:59:27;;;;;;;8.45;2.80;;;12.30;99.90;;;;;;5032470;28;20762;-69
2022/12/22 16:01:53;;;;;;;9.20;2.80;;;12.30;99.90;;;;;;5032675;28;20908;-69
2022/12/22 16:04:21;;;;;;;9.95;2.35;;;12.30;99.90;;;;;;5040322;28;20429;-69
2022/12/22 16:06:46;;;;;;;8.32;2.75;;;12.30;99.90;;;;;;5028914;28;20387;-69
2022/12/22 16:09:19;;;;;;;9.63;3.10;;;12.20;99.90;;;;;;5040312;28;20395;-69
2022/12/22 16:11:45;;;;;;;8.07;3.00;;;12.00;99.90;;;;;;5032656;28;20857;-69
2022/12/22 16:14:13;;;;;;;10.27;2.97;;;12.00;99.90;;;;;;5031700;28;20391;-69
2022/12/22 16:16:40;;;;;;;9.35;3.00;;;11.90;99.90;;;;;;5032491;28;20387;-69
2022/12/22 16:19:12;;;;;;;7.63;3.03;;;12.00;99.90;;;;;;5032433;28;20415;-69
2022/12/22 16:21:37;;;;;;;11.73;2.70;;;12.10;99.90;;;;;;5032412;28;20375;-69
2022/12/22 16:24:04;;;;;;;9.93;2.42;;;12.10;99.90;;;;;;5031308;28;20870;-69
2022/12/22 16:26:30;;;;;;;8.75;2.95;;;12.10;99.90;;;;;;5044049;28;20409;-70
2022/12/22 16:28:57;;;;;;;7.40;2.43;;;12.20;99.90;;;;;;5052198;28;20443;-70
2022/12/22 16:31:24;;;;;;;10.98;2.90;;;12.20;99.90;;;;;;5052158;28;20939;-72
2022/12/22 16:33:50;;;;;;;8.68;3.15;;;12.40;99.90;;;;;;5051287;28;20462;-72
2022/12/22 16:36:16;;;;;;;8.68;2.60;;;12.50;99.90;;;;;;5051961;28;20377;-72
2022/12/22 16:38:44;;;;;;;8.85;2.70;;;12.50;99.90;;;;;;5052247;28;20443;-72
2022/12/22 16:41:24;;;;;;;8.05;2.38;;;12.50;99.90;;;;;;5051385;28;20386;-71
2022/12/22 16:43:51;;;;;;;9.30;2.85;;;12.50;99.90;;;;;;5050985;28;20397;-71
2022/12/22 16:46:20;;;;;;;10.00;2.80;;;12.40;99.90;;;;;;5051937;28;20472;-72